createdAt,value
2017-11-06T00:00:25.471Z,4.40
2017-11-06T00:03:31.137Z,3.50
2017-11-06T00:06:35.987Z,3.83
2017-11-06T00:09:42.064Z,3.23
2017-11-06T00:12:47.465Z,3.30
2017-11-06T00:15:52.604Z,3.57
2017-11-06T00:18:57.412Z,3.93
2017-11-06T00:22:02.487Z,3.57
2017-11-06T00:25:08.716Z,4.07
2017-11-06T00:28:14.132Z,3.33
2017-11-06T00:31:19.312Z,4.00
2017-11-06T00:34:24.888Z,4.17
2017-11-06T00:37:31.463Z,4.40
2017-11-06T00:40:36.419Z,3.57
2017-11-06T00:43:41.208Z,3.50
2017-11-06T00:46:46.952Z,3.30
2017-11-06T00:49:52.151Z,4.77
2017-11-06T00:52:57.184Z,3.53
2017-11-06T00:56:02.680Z,3.43
2017-11-06T00:59:07.693Z,3.27
2017-11-06T01:02:12.579Z,3.67
2017-11-06T01:05:17.984Z,4.20
2017-11-06T01:08:23.589Z,5.63
2017-11-06T01:11:29.171Z,3.97
2017-11-06T01:14:34.884Z,4.40
2017-11-06T01:17:41.008Z,4.27
2017-11-06T01:20:45.772Z,3.83
2017-11-06T01:23:50.744Z,4.20
2017-11-06T01:26:55.997Z,4.67
2017-11-06T01:30:01.200Z,4.30
2017-11-06T01:33:06.588Z,4.00
2017-11-06T01:36:12.197Z,3.70
2017-11-06T01:39:17.708Z,3.13
2017-11-06T01:42:22.684Z,3.63
2017-11-06T01:45:28.203Z,3.47
2017-11-06T01:48:33.366Z,3.60
2017-11-06T01:51:39.119Z,3.30
2017-11-06T01:54:44.728Z,3.33
2017-11-06T01:57:50.491Z,3.80
2017-11-06T02:00:56.120Z,3.80
2017-11-06T02:04:00.920Z,4.10
2017-11-06T02:07:06.095Z,4.00
2017-11-06T02:10:11.157Z,3.97
2017-11-06T02:13:16.529Z,3.93
2017-11-06T02:16:22.025Z,3.83
2017-11-06T02:19:26.980Z,4.57
2017-11-06T02:22:32.574Z,3.77
2017-11-06T02:25:37.529Z,3.90
2017-11-06T02:28:43.550Z,3.40
2017-11-06T02:31:49.380Z,3.60
2017-11-06T02:34:54.979Z,3.77
2017-11-06T02:38:00.319Z,4.00
2017-11-06T02:41:05.410Z,4.87
2017-11-06T02:44:10.520Z,3.70
2017-11-06T02:47:15.865Z,3.60
2017-11-06T02:50:21.275Z,3.60
2017-11-06T02:53:28.763Z,4.13
2017-11-06T02:56:33.847Z,3.57
2017-11-06T02:59:39.740Z,3.80
2017-11-06T03:02:45.852Z,3.90
2017-11-06T03:05:50.919Z,4.00
2017-11-06T03:08:56.176Z,3.50
2017-11-06T03:12:01.537Z,3.83
2017-11-06T03:15:06.383Z,3.60
2017-11-06T03:18:12.019Z,3.33
2017-11-06T03:21:17.784Z,4.13
2017-11-06T03:24:23.257Z,4.30
2017-11-06T03:27:28.939Z,3.80
2017-11-06T03:30:33.785Z,3.70
2017-11-06T03:33:39.163Z,4.00
2017-11-06T03:36:44.104Z,4.07
2017-11-06T03:39:49.651Z,4.30
2017-11-06T03:42:55.332Z,4.70
2017-11-06T03:46:01.120Z,3.20
2017-11-06T03:49:06.309Z,3.93
2017-11-06T03:52:11.496Z,3.60
2017-11-06T03:55:17.804Z,3.57
2017-11-06T03:58:22.723Z,3.60
2017-11-06T04:01:29.131Z,3.50
2017-11-06T04:04:34.224Z,3.07
2017-11-06T04:07:39.472Z,3.33
2017-11-06T04:10:44.436Z,3.63
2017-11-06T04:13:50.371Z,3.53
2017-11-06T04:16:55.636Z,3.83
2017-11-06T04:20:01.253Z,3.40
2017-11-06T04:23:06.398Z,3.40
2017-11-06T04:26:11.776Z,3.90
2017-11-06T04:29:17.053Z,3.80
2017-11-06T04:32:22.752Z,3.83
2017-11-06T04:35:28.561Z,3.67
2017-11-06T04:38:34.093Z,4.43
2017-11-06T04:41:39.415Z,4.43
2017-11-06T04:44:45.116Z,4.23
2017-11-06T04:47:50.375Z,4.50
2017-11-06T04:50:56.148Z,4.10
2017-11-06T04:54:01.611Z,4.00
2017-11-06T04:57:07.204Z,3.93
2017-11-06T05:00:12.534Z,4.30
2017-11-06T05:03:18.100Z,4.30
2017-11-06T05:06:23.361Z,3.80
2017-11-06T05:09:28.224Z,5.33
2017-11-06T05:12:33.301Z,3.63
2017-11-06T05:15:39.444Z,4.30
2017-11-06T05:18:44.826Z,3.80
2017-11-06T05:21:49.820Z,4.43
2017-11-06T05:24:55.152Z,4.87
2017-11-06T05:28:00.856Z,4.90
2017-11-06T05:31:06.595Z,5.30
2017-11-06T05:34:11.984Z,4.40
2017-11-06T05:37:16.822Z,4.33
2017-11-06T05:40:22.940Z,4.40
2017-11-06T05:43:28.395Z,5.07
2017-11-06T05:46:33.357Z,4.80
2017-11-06T05:49:38.368Z,5.03
2017-11-06T05:52:44.487Z,4.23
2017-11-06T05:55:50.168Z,5.70
2017-11-06T05:58:55.620Z,5.40
2017-11-06T06:02:00.956Z,5.50
2017-11-06T06:05:06.476Z,6.00
2017-11-06T06:08:11.901Z,6.03
2017-11-06T06:11:17.076Z,7.17
2017-11-06T06:14:22.294Z,7.17
2017-11-06T06:17:27.474Z,6.30
2017-11-06T06:20:32.424Z,6.97
2017-11-06T06:23:38.604Z,6.47
2017-11-06T06:26:43.660Z,6.30
2017-11-06T06:29:48.984Z,6.47
2017-11-06T06:32:54.175Z,6.90
2017-11-06T06:36:00.119Z,6.53
2017-11-06T06:39:06.248Z,7.87
2017-11-06T06:42:11.008Z,7.60
2017-11-06T06:45:16.227Z,7.90
2017-11-06T06:48:22.259Z,8.90
2017-11-06T06:51:27.282Z,8.17
2017-11-06T06:54:33.662Z,8.70
2017-11-06T06:57:39.508Z,8.43
2017-11-06T07:00:45.147Z,8.43
2017-11-06T07:03:51.760Z,8.10
2017-11-06T07:06:56.856Z,9.73
2017-11-06T07:10:01.964Z,8.50
2017-11-06T07:13:07.640Z,8.73
2017-11-06T07:16:13.868Z,9.07
2017-11-06T07:19:19.490Z,8.73
2017-11-06T07:22:25.076Z,8.47
2017-11-06T07:25:29.942Z,8.53
2017-11-06T07:28:36.530Z,9.00
2017-11-06T07:31:41.987Z,8.07
2017-11-06T07:34:47.140Z,8.90
2017-11-06T07:37:52.516Z,10.23
2017-11-06T07:40:57.456Z,10.30
2017-11-06T07:44:02.817Z,10.33
2017-11-06T07:47:09.024Z,9.57
2017-11-06T07:50:13.928Z,10.57
2017-11-06T07:53:20.540Z,10.20
2017-11-06T07:56:26.868Z,9.63
2017-11-06T07:59:32.012Z,10.70
2017-11-06T08:02:37.404Z,11.00
2017-11-06T08:05:42.669Z,12.00
2017-11-06T08:08:47.800Z,9.87
2017-11-06T08:11:53.171Z,10.10
2017-11-06T08:14:58.120Z,10.10
2017-11-06T08:18:02.940Z,10.17
2017-11-06T08:21:08.424Z,10.90
2017-11-06T08:24:14.480Z,9.10
2017-11-06T08:27:19.364Z,9.70
2017-11-06T08:30:24.896Z,9.57
2017-11-06T08:33:30.197Z,10.00
2017-11-06T08:36:35.611Z,10.10
2017-11-06T08:39:40.439Z,8.80
2017-11-06T08:42:45.284Z,9.87
2017-11-06T08:45:50.651Z,8.30
2017-11-06T08:48:56.213Z,9.30
2017-11-06T08:52:01.292Z,8.97
2017-11-06T08:55:06.960Z,9.37
2017-11-06T08:58:12.194Z,9.00
2017-11-06T09:01:17.227Z,9.27
2017-11-06T09:04:22.560Z,7.73
2017-11-06T09:07:28.185Z,8.60
2017-11-06T09:10:33.641Z,7.53
2017-11-06T09:13:38.623Z,9.47
2017-11-06T09:16:44.272Z,9.80
2017-11-06T09:19:49.733Z,8.17
2017-11-06T09:22:54.838Z,10.03
2017-11-06T09:25:59.938Z,8.60
2017-11-06T09:29:04.688Z,8.60
2017-11-06T09:32:09.436Z,8.47
2017-11-06T09:35:14.941Z,8.03
2017-11-06T09:38:20.577Z,10.00
2017-11-06T09:41:26.231Z,8.80
2017-11-06T09:44:32.399Z,8.33
2017-11-06T09:47:37.259Z,8.70
2017-11-06T09:50:43.772Z,8.90
2017-11-06T09:53:50.131Z,9.30
2017-11-06T09:56:55.692Z,9.40
2017-11-06T10:00:01.096Z,10.57
2017-11-06T10:03:06.320Z,11.37
2017-11-06T10:06:11.528Z,10.33
2017-11-06T10:09:16.511Z,10.30
2017-11-06T10:12:22.236Z,9.47
2017-11-06T10:15:27.924Z,10.27
2017-11-06T10:18:33.015Z,11.30
2017-11-06T10:21:38.316Z,10.07
2017-11-06T10:24:43.868Z,10.80
2017-11-06T10:27:49.643Z,9.60
2017-11-06T10:30:55.175Z,10.47
2017-11-06T10:34:00.635Z,9.40
2017-11-06T10:37:07.132Z,10.73
2017-11-06T10:40:12.796Z,9.23
2017-11-06T10:43:18.336Z,7.20
2017-11-06T10:46:24.017Z,8.73
2017-11-06T10:49:29.096Z,8.77
2017-11-06T10:52:33.903Z,8.33
2017-11-06T10:55:38.992Z,10.03
2017-11-06T10:58:45.148Z,8.80
2017-11-06T11:01:50.164Z,9.17
2017-11-06T11:04:55.300Z,6.97
2017-11-06T11:08:00.520Z,5.80
2017-11-06T11:11:06.054Z,7.67
2017-11-06T11:14:11.555Z,6.90
2017-11-06T11:17:16.825Z,6.90
2017-11-06T11:20:21.786Z,7.70
2017-11-06T11:23:27.656Z,7.30
2017-11-06T11:26:34.072Z,9.80
2017-11-06T11:29:39.610Z,8.77
2017-11-06T11:32:44.824Z,7.90
2017-11-06T11:35:50.092Z,7.30
2017-11-06T11:38:55.826Z,8.80
2017-11-06T11:42:00.824Z,8.17
2017-11-06T11:45:06.500Z,7.00
2017-11-06T11:48:12.379Z,7.60
2017-11-06T11:51:17.256Z,7.30
2017-11-06T11:54:22.313Z,7.63
2017-11-06T11:57:28.139Z,8.10
2017-11-06T12:00:33.840Z,7.60
2017-11-06T12:03:38.668Z,7.63
2017-11-06T12:06:43.715Z,8.03
2017-11-06T12:09:49.256Z,8.20
2017-11-06T12:12:54.720Z,7.70
2017-11-06T12:15:59.908Z,6.50
2017-11-06T12:19:06.455Z,7.17
2017-11-06T12:22:11.974Z,7.50
2017-11-06T12:25:17.588Z,5.73
2017-11-06T12:28:23.340Z,6.27
2017-11-06T12:31:28.855Z,5.10
2017-11-06T12:34:35.172Z,5.37
2017-11-06T12:37:40.693Z,4.03
2017-11-06T12:40:46.933Z,4.00
2017-11-06T12:43:52.680Z,4.57
2017-11-06T12:46:57.584Z,3.20
2017-11-06T12:50:03.888Z,3.40
2017-11-06T12:53:09.103Z,4.20
2017-11-06T12:56:14.719Z,3.50
2017-11-06T12:59:19.760Z,3.90
2017-11-06T13:02:25.254Z,4.00
2017-11-06T13:05:30.492Z,4.83
2017-11-06T13:08:35.764Z,5.07
2017-11-06T13:11:41.555Z,5.17
2017-11-06T13:14:46.333Z,5.03
2017-11-06T13:17:51.493Z,5.33
2017-11-06T13:20:57.196Z,4.50
2017-11-06T13:24:02.986Z,3.97
2017-11-06T13:27:09.080Z,4.97
2017-11-06T13:30:14.939Z,5.70
2017-11-06T13:33:20.337Z,5.50
2017-11-06T13:36:26.023Z,5.43
2017-11-06T13:39:31.237Z,4.20
2017-11-06T13:42:36.352Z,4.67
2017-11-06T13:45:42.044Z,4.93
2017-11-06T13:48:48.340Z,4.37
2017-11-06T13:51:54.168Z,4.70
2017-11-06T13:54:59.875Z,3.70
2017-11-06T13:58:04.628Z,3.90
2017-11-06T14:01:09.844Z,4.53
2017-11-06T14:04:16.393Z,3.80
2017-11-06T14:07:21.401Z,4.50
2017-11-06T14:10:26.556Z,4.30
2017-11-06T14:13:32.887Z,4.20
2017-11-06T14:16:38.409Z,4.00
2017-11-06T14:19:43.203Z,4.20
2017-11-06T14:22:49.683Z,4.20
2017-11-06T14:25:55.677Z,4.83
2017-11-06T14:29:01.623Z,5.50
2017-11-06T14:32:09.180Z,4.97
2017-11-06T14:35:14.520Z,5.43
2017-11-06T14:38:20.061Z,5.60
2017-11-06T14:41:25.376Z,4.80
2017-11-06T14:44:31.124Z,5.50
2017-11-06T14:47:42.878Z,5.27
2017-11-06T14:50:48.340Z,6.10
2017-11-06T14:53:53.403Z,6.30
2017-11-06T14:56:58.192Z,6.77
2017-11-06T15:00:03.334Z,6.50
2017-11-06T15:03:08.698Z,6.97
2017-11-06T15:06:14.501Z,6.47
2017-11-06T15:09:20.411Z,6.67
2017-11-06T15:12:26.094Z,6.70
2017-11-06T15:15:31.538Z,6.53
2017-11-06T15:18:37.416Z,5.60
2017-11-06T15:21:42.375Z,5.13
2017-11-06T15:24:48.234Z,5.40
2017-11-06T15:27:57.148Z,4.50
2017-11-06T15:31:03.203Z,4.53
2017-11-06T15:34:08.652Z,4.03
2017-11-06T15:37:13.708Z,4.33
2017-11-06T15:40:19.032Z,4.57
2017-11-06T15:43:24.192Z,3.90
2017-11-06T15:46:29.744Z,3.83
2017-11-06T15:49:35.415Z,4.10
2017-11-06T15:52:40.373Z,3.40
2017-11-06T15:55:45.209Z,4.20
2017-11-06T15:58:50.064Z,4.10
2017-11-06T16:01:55.420Z,4.10
2017-11-06T16:05:00.426Z,3.90
2017-11-06T16:08:06.049Z,3.73
2017-11-06T16:11:11.428Z,4.03
2017-11-06T16:14:16.482Z,3.77
2017-11-06T16:17:21.980Z,3.70
2017-11-06T16:20:27.064Z,3.80
2017-11-06T16:23:32.455Z,3.60
2017-11-06T16:26:37.272Z,3.67
2017-11-06T16:29:42.176Z,4.20
2017-11-06T16:32:47.385Z,4.80
2017-11-06T16:35:52.470Z,4.23
2017-11-06T16:38:57.482Z,4.50
2017-11-06T16:42:02.824Z,5.10
2017-11-06T16:45:08.240Z,5.27
2017-11-06T16:48:13.897Z,5.20
2017-11-06T16:51:19.166Z,4.90
2017-11-06T16:54:24.725Z,5.00
2017-11-06T16:57:30.480Z,5.63
2017-11-06T17:00:36.397Z,4.60
2017-11-06T17:03:42.012Z,6.80
2017-11-06T17:06:48.038Z,5.50
2017-11-06T17:09:53.641Z,4.60
2017-11-06T17:12:59.769Z,4.90
2017-11-06T17:16:05.000Z,5.57
2017-11-06T17:19:11.120Z,5.40
2017-11-06T17:22:16.569Z,5.83
2017-11-06T17:25:22.337Z,5.20
2017-11-06T17:28:27.363Z,4.87
2017-11-06T17:31:33.681Z,4.20
2017-11-06T17:34:38.899Z,4.10
2017-11-06T17:37:44.614Z,4.10
2017-11-06T17:40:50.024Z,4.10
2017-11-06T17:43:57.213Z,4.60
2017-11-06T17:47:02.744Z,4.40
2017-11-06T17:50:08.389Z,4.63
2017-11-06T17:53:13.743Z,4.87
2017-11-06T17:56:19.587Z,4.20
2017-11-06T17:59:24.760Z,4.53
2017-11-06T18:02:30.402Z,4.30
2017-11-06T18:05:39.030Z,4.43
2017-11-06T18:08:47.035Z,3.93
2017-11-06T18:11:54.212Z,3.97
2017-11-06T18:14:59.548Z,4.20
2017-11-06T18:18:04.705Z,4.50
2017-11-06T18:21:14.621Z,4.53
2017-11-06T18:24:20.204Z,4.77
2017-11-06T18:27:25.622Z,4.30
2017-11-06T18:30:30.559Z,5.10
2017-11-06T18:33:36.428Z,6.93
2017-11-06T18:36:42.840Z,7.20
2017-11-06T18:39:49.120Z,6.63
2017-11-06T18:42:59.248Z,7.87
2017-11-06T18:46:05.799Z,7.40
2017-11-06T18:49:17.797Z,8.40
2017-11-06T18:52:24.363Z,7.40
2017-11-06T18:55:29.205Z,6.60
2017-11-06T18:58:35.816Z,6.27
2017-11-06T19:01:46.507Z,6.20
2017-11-06T19:04:57.592Z,5.40
2017-11-06T19:08:05.229Z,4.80
2017-11-06T19:11:18.877Z,5.13
2017-11-06T19:14:24.505Z,5.70
2017-11-06T19:17:32.940Z,7.07
2017-11-06T19:20:38.015Z,7.90
2017-11-06T19:23:43.079Z,7.93
2017-11-06T19:26:48.050Z,8.30
2017-11-06T19:30:00.030Z,7.40
2017-11-06T19:33:10.288Z,7.80
2017-11-06T19:36:15.384Z,7.60
2017-11-06T19:39:23.523Z,7.90
2017-11-06T19:42:28.491Z,7.73
2017-11-06T19:45:35.121Z,6.93
2017-11-06T19:48:40.180Z,7.30
2017-11-06T19:51:45.720Z,6.37
2017-11-06T19:54:50.556Z,7.10
2017-11-06T19:58:01.324Z,8.83
2017-11-06T20:01:06.935Z,8.00
2017-11-06T20:04:12.713Z,8.37
2017-11-06T20:07:19.020Z,7.50
2017-11-06T20:10:24.048Z,8.30
2017-11-06T20:13:29.746Z,7.80
2017-11-06T20:16:35.812Z,9.53
2017-11-06T20:19:41.181Z,7.40
2017-11-06T20:22:46.361Z,8.43
2017-11-06T20:25:51.538Z,8.77
2017-11-06T20:28:56.746Z,8.57
2017-11-06T20:32:01.822Z,8.50
2017-11-06T20:35:06.752Z,9.47
2017-11-06T20:38:12.040Z,8.10
2017-11-06T20:41:18.133Z,8.67
2017-11-06T20:44:23.437Z,7.60
2017-11-06T20:47:29.199Z,8.07
2017-11-06T20:50:35.204Z,6.87
2017-11-06T20:53:41.584Z,7.60
2017-11-06T20:56:46.519Z,9.13
2017-11-06T20:59:52.280Z,9.07
2017-11-06T21:02:57.747Z,8.03
2017-11-06T21:06:03.103Z,9.77
2017-11-06T21:09:09.447Z,11.40
2017-11-06T21:12:14.247Z,10.50
2017-11-06T21:15:19.504Z,10.17
2017-11-06T21:18:24.478Z,11.07
2017-11-06T21:21:30.334Z,11.50
2017-11-06T21:24:35.229Z,10.43
2017-11-06T21:27:40.081Z,12.90
2017-11-06T21:30:52.625Z,12.80
2017-11-06T21:33:57.977Z,12.70
2017-11-06T21:37:03.249Z,10.30
2017-11-06T21:40:08.198Z,11.00
2017-11-06T21:43:14.040Z,11.10
2017-11-06T21:46:19.871Z,11.40
2017-11-06T21:49:33.008Z,11.27
2017-11-06T21:52:38.997Z,11.00
2017-11-06T21:55:44.663Z,10.57
2017-11-06T21:58:50.168Z,9.67
2017-11-06T22:01:55.880Z,10.60
2017-11-06T22:05:01.149Z,9.60
2017-11-06T22:08:06.592Z,9.47
2017-11-06T22:11:11.803Z,9.40
2017-11-06T22:14:17.037Z,9.53
2017-11-06T22:17:22.357Z,9.40
2017-11-06T22:20:27.149Z,9.30
2017-11-06T22:23:31.908Z,9.10
2017-11-06T22:26:38.189Z,9.63
2017-11-06T22:29:43.728Z,10.00
2017-11-06T22:32:49.613Z,9.00
2017-11-06T22:35:54.860Z,9.30
2017-11-06T22:39:00.376Z,9.30
2017-11-06T22:42:05.512Z,10.00
2017-11-06T22:45:10.550Z,9.53
2017-11-06T22:48:15.521Z,10.10
2017-11-06T22:51:21.308Z,8.83
2017-11-06T22:54:26.196Z,9.40
2017-11-06T22:57:31.279Z,10.53
2017-11-06T23:00:36.819Z,10.43
2017-11-06T23:03:41.730Z,10.37
2017-11-06T23:06:47.348Z,9.20
2017-11-06T23:09:53.024Z,10.97
2017-11-06T23:12:58.324Z,10.97
2017-11-06T23:16:04.199Z,10.33
2017-11-06T23:19:09.279Z,10.10
2017-11-06T23:22:15.569Z,10.40
2017-11-06T23:25:21.327Z,10.60
2017-11-06T23:28:26.603Z,9.30
2017-11-06T23:31:32.207Z,9.20
2017-11-06T23:34:37.496Z,9.90
2017-11-06T23:37:42.864Z,9.33
2017-11-06T23:40:48.056Z,8.90
2017-11-06T23:43:53.635Z,8.50
2017-11-06T23:46:59.284Z,7.73
2017-11-06T23:50:05.228Z,8.00
2017-11-06T23:53:11.153Z,8.20
2017-11-06T23:56:16.480Z,8.10
2017-11-06T23:59:21.396Z,7.83
